• Join FlightAware (Why Join?)
  • Login
  • US Flag GB Flag 
06:13 EDT


 

Airport Tracker/Info


-or-


 

Live Flight TrackerFlight Track Log ✈ FLG3729 ✈ 01-May-2013 ✈ KALB - KDTW

Flight Track Log - Related Links

Times and Time Zones

All times are in EDT time to prevent confusion due to time zone crossing. See the FLG3729 flight status page for this flight to view local times or setup timezone preferences in your user account.

Time Position Orientation Groundspeed Altitude Reporting Facility
EDT Latitude Longitude Course Direction KTS MPH feet Rate Location/Type
05:52 42.7939 -73.8547 283° West 193 222 2,800  Level Boston Center
05:54 42.8508 -73.9636 306° West 250 288 6,100 2,580 Climbing Boston Center
05:55 42.8318 -74.3223 281° West  Level FlightAware Approximate
05:55 42.8936 -74.0414 307° West 282 325 9,100  Level Boston Center
05:56 42.8537 -74.4554 283° West  Level FlightAware Approximate
05:56 42.9461 -74.1447 305° West 296 341 11,400  Level Boston Center
05:57 42.8861 -74.5824 283° West  Level FlightAware Approximate
05:57 42.9944 -74.2569 301° West 337 388 13,000  Level Boston Center
05:58 42.9093 -74.7151 283° West  Level FlightAware Approximate
05:58 43.0108 -74.3994 279° West 363 418 14,400  Level Boston Center
05:59 43.0228 -74.5475 276° West 396 456 16,000 1,500 Climbing Boston Center
06:00 43.0367 -74.6956 277° West 401 461 17,400 1,020 Climbing Boston Center
06:01 43.0500 -74.8525 277° West 406 467 18,100 900 Climbing Boston Center
06:02 43.0656 -75.0064 278° West 411 473 19,200 960 Climbing Boston Center
06:03 43.0769 -75.1461 276° West 411 473 20,100 960 Climbing Boston Center
06:04 43.0897 -75.3061 276° West 411 473 21,200 1,080 Climbing Boston Center
06:05 43.1022 -75.4631 276° West 416 479 22,300 1,080 Climbing Boston Center
06:06 43.1147 -75.6203 276° West 416 479 23,400 1,080 Climbing Boston Center
06:07 43.1289 -75.7803 277° West 422 486 24,500 1,140 Climbing Boston Center
06:09 43.1569 -76.1514 276° West 397 457 27,200 1,020 Climbing Cleveland Center
06:10 43.1525 -76.3083 268° West 407 468 28,000 360 Climbing Cleveland Center
06:11 43.1394 -76.4714 264° West 420 483 28,000  Level Cleveland Center
06:12 43.1244 -76.6375 263° West 431 496 28,000  Level Cleveland Center
06:13 43.1108 -76.7864 263° West 444 511 28,000  Level Cleveland Center
06:14 43.0956 -76.9608 263° West 456 525 28,000  Level Cleveland Center
06:15 43.0800 -77.1350 263° West 467 537 28,000  Level Cleveland Center
06:16 43.0642 -77.3094 263° West 467 537 28,000  Level Cleveland Center
06:17 43.0461 -77.4894 262° West 467 537 28,000  Level Cleveland Center
06:18 43.0300 -77.6633 263° West 467 537 28,000  Level Cleveland Center
06:19 43.0133 -77.8403 263° West 467 537 28,000  Level Cleveland Center
06:20 42.9944 -78.0114 261° West 467 537 28,000  Level Cleveland Center
06:21 42.9756 -78.2081 263° West 472 543 28,000  Level Cleveland Center
06:22 42.9583 -78.3817 262° West 472 543 28,000  Level Cleveland Center
06:23 42.9406 -78.5556 262° West 467 537 28,000  Level Cleveland Center
06:24 42.9183 -78.7292 260° West 467 537 28,000  Level Cleveland Center
06:25 42.8942 -78.9056 259° West 467 537 28,000  Level Cleveland Center
06:26 42.8672 -79.0792 258° West 467 537 28,000  Level Cleveland Center
06:27 42.8422 -79.2553 259° West 467 537 28,000  Level Cleveland Center
06:28 42.8211 -79.4228 260° West 467 537 28,000  Level Cleveland Center
06:29 42.7978 -79.5817 259° West 450 518 28,000  Level Cleveland Center
06:30 42.7697 -79.7403 257° West 445 512 28,000  Level Cleveland Center
06:31 42.7542 -79.9044 263° West 440 506 28,000  Level Cleveland Center
06:32 42.7406 -80.0714 264° West 445 512 28,000  Level Cleveland Center
06:33 42.7347 -80.2328 267° West 445 512 28,000  Level Cleveland Center
06:34 42.7269 -80.4081 267° West 445 512 28,000  Level Cleveland Center
06:35 42.7228 -80.5775 268° West 457 526 28,000 -300 Level Cleveland Center
06:36 42.7122 -80.7500 265° West 462 532 27,500 -780 Descending Cleveland Center
06:37 42.7014 -80.9222 265° West 457 526 26,500 -1,080 Descending Cleveland Center
06:38 42.6842 -81.0886 262° West 457 526 25,400 -960 Descending Cleveland Center
06:39 42.6667 -81.2325 261° West 450 518 24,600 -900 Descending Cleveland Center
06:40 42.6492 -81.3933 262° West 441 507 23,600 -1,020 Descending Cleveland Center
06:41 42.6311 -81.5539 261° West 441 507 22,600 -1,020 Descending Cleveland Center
06:42 42.6111 -81.7117 260° West 432 497 21,600 -1,020 Descending Cleveland Center
06:43 42.5906 -81.8664 260° West 417 480 20,600 -1,500 Descending Cleveland Center
06:44 42.5742 -82.0156 262° West 417 480 18,700 -1,920 Descending Cleveland Center
06:45 42.5578 -82.1531 261° West 397 457 16,800 -2,160 Descending Cleveland Center
06:45 42.5486 -82.2178 259° West 372 428 15,700 -2,100 Descending Cleveland Center
06:46 42.5392 -82.2908 260° West 385 443 14,700 -2,220 Descending Cleveland Center
06:47 42.5250 -82.4089 261° West 369 425 12,800 -2,100 Descending Cleveland Center
06:47 42.5225 -82.4283 260° West 380 437 12,600 -1,380 Descending Cleveland Center
06:47 42.5175 -82.4789 262° West 361 415 12,000 -600 Descending Cleveland Center
06:48 42.5039 -82.5489 255° West 360 414 12,000 -720 Level Cleveland Center
06:49 42.4861 -82.6047 247° West 287 330 11,200 -1,620 Descending Cleveland Center
06:49 42.4708 -82.6492 245° Southwest 322 371 10,400 -1,980 Descending Cleveland Center
06:50 42.4531 -82.7022 246° West 276 318 9,200 -1,440 Descending Cleveland Center
06:50 42.4378 -82.7411 242° Southwest 294 338 9,000 -420 Descending Cleveland Center
06:51 42.4306 -82.7972 260° West 276 318 8,800 -840 Descending Cleveland Center
06:51 42.4233 -82.8447 258° West 281 323 8,200 -1,380 Descending Cleveland Center
06:52 42.4133 -82.9342 261° West 278 320 7,000 -660 Descending Cleveland Center
06:53 42.4319 -83.0392 284° West 234 269 7,000 -180 Level Cleveland Center
06:54 42.4431 -83.0986 284° West 229 264 6,700 -660 Descending Cleveland Center
06:54 42.4447 -83.1211 276° West 247 284 6,300 -1,380 Descending Cleveland Center
06:55 42.4308 -83.1797 252° West 216 249 5,300 -1,320 Descending Cleveland Center
06:55 42.4161 -83.1903 208° Southwest 209 241 5,000 -1,140 Descending Cleveland Center
06:56 42.3822 -83.2142 208° Southwest 175 201 4,200 -1,020 Descending Cleveland Center
06:57 42.3439 -83.2464 212° Southwest 148 170 3,400 -840 Descending Cleveland Center